createdAt,value
2022-08-09T00:00:04.911Z,0.70
2022-08-09T00:02:33.806Z,0.70
2022-08-09T00:06:16.124Z,0.60
2022-08-09T00:07:47.505Z,0.75
2022-08-09T00:10:17.771Z,0.65
2022-08-09T00:12:52.492Z,0.70
2022-08-09T00:15:26.557Z,0.70
2022-08-09T00:18:10.605Z,0.60
2022-08-09T00:20:42.099Z,0.70
2022-08-09T00:23:55.161Z,0.77
2022-08-09T00:26:04.811Z,0.77
2022-08-09T00:28:31.779Z,0.63
2022-08-09T00:31:01.171Z,0.75
2022-08-09T00:33:48.952Z,0.90
2022-08-09T00:36:18.066Z,0.80
2022-08-09T00:38:44.893Z,0.70
2022-08-09T00:41:13.161Z,0.60
2022-08-09T00:44:14.503Z,0.90
2022-08-09T00:46:56.264Z,0.65
2022-08-09T00:49:24.559Z,0.75
2022-08-09T00:51:56.426Z,0.73
2022-08-09T00:54:35.124Z,0.77
2022-08-09T00:57:10.378Z,0.70
2022-08-09T00:59:46.313Z,0.85
2022-08-09T01:02:15.705Z,0.80
2022-08-09T01:05:14.258Z,0.82
2022-08-09T01:08:05.409Z,0.60
2022-08-09T01:10:55.163Z,0.57
2022-08-09T01:13:58.816Z,0.75
2022-08-09T01:16:33.308Z,0.70
2022-08-09T01:19:40.156Z,0.88
2022-08-09T01:22:33.852Z,0.63
2022-08-09T01:25:13.436Z,0.70
2022-08-09T01:27:47.091Z,0.82
2022-08-09T01:30:28.794Z,0.80
2022-08-09T01:33:02.172Z,0.90
2022-08-09T01:35:39.223Z,0.70
2022-08-09T01:38:19.755Z,0.52
2022-08-09T01:41:05.110Z,0.60
2022-08-09T01:43:50.506Z,0.68
2022-08-09T01:46:26.658Z,0.90
2022-08-09T01:49:14.849Z,0.73
2022-08-09T01:51:53.585Z,0.90
2022-08-09T01:54:32.847Z,0.70
2022-08-09T01:57:03.945Z,0.65
2022-08-09T01:59:32.257Z,1.00
2022-08-09T02:02:01.173Z,0.77
2022-08-09T02:04:28.681Z,0.80
2022-08-09T02:08:34.832Z,0.85
2022-08-09T02:10:09.722Z,1.00
2022-08-09T02:12:36.574Z,0.90
2022-08-09T02:15:06.219Z,0.75
2022-08-09T02:18:09.709Z,0.80
2022-08-09T02:20:26.246Z,0.80
2022-08-09T02:22:57.668Z,0.77
2022-08-09T02:25:28.943Z,0.82
2022-08-09T02:28:17.992Z,1.00
2022-08-09T02:30:50.496Z,0.85
2022-08-09T02:33:38.286Z,0.90
2022-08-09T02:36:14.819Z,0.88
2022-08-09T02:38:47.464Z,0.80
2022-08-09T02:41:15.875Z,0.77
2022-08-09T02:43:53.835Z,0.90
2022-08-09T02:46:23.832Z,0.70
2022-08-09T02:48:51.331Z,0.90
2022-08-09T02:51:18.340Z,1.08
2022-08-09T02:53:52.890Z,0.82
2022-08-09T02:56:26.058Z,0.70
2022-08-09T02:58:54.563Z,1.02
2022-08-09T03:01:21.807Z,1.00
2022-08-09T03:04:17.094Z,0.85
2022-08-09T03:06:45.980Z,0.80
2022-08-09T03:09:15.667Z,0.93
2022-08-09T03:12:06.251Z,0.90
2022-08-09T03:14:31.781Z,0.85
2022-08-09T03:16:59.647Z,0.73
2022-08-09T03:19:57.966Z,0.70
2022-08-09T03:22:25.689Z,0.90
2022-08-09T03:25:05.907Z,0.82
2022-08-09T03:27:45.988Z,0.80
2022-08-09T03:30:13.657Z,0.80
2022-08-09T03:32:40.971Z,1.10
2022-08-09T03:35:14.932Z,1.00
2022-08-09T03:37:59.147Z,0.90
2022-08-09T03:40:30.906Z,1.00
2022-08-09T03:42:57.663Z,1.15
2022-08-09T03:46:05.222Z,1.00
2022-08-09T03:48:10.973Z,1.00
2022-08-09T03:50:37.539Z,0.88
2022-08-09T03:53:10.666Z,1.10
2022-08-09T03:55:40.687Z,1.00
2022-08-09T03:58:16.907Z,0.80
2022-08-09T04:00:47.856Z,1.08
2022-08-09T04:03:19.676Z,0.90
2022-08-09T04:06:01.333Z,0.90
2022-08-09T04:08:31.534Z,0.90
2022-08-09T04:11:01.310Z,1.00
2022-08-09T04:13:44.855Z,0.90
2022-08-09T04:16:20.915Z,1.02
2022-08-09T04:18:47.989Z,0.82
2022-08-09T04:21:17.547Z,0.93
2022-08-09T04:23:54.568Z,0.90
2022-08-09T04:26:24.163Z,1.17
2022-08-09T04:28:50.688Z,1.00
2022-08-09T04:31:17.181Z,1.00
2022-08-09T04:33:52.380Z,0.90
2022-08-09T04:36:24.654Z,1.23
2022-08-09T04:38:51.265Z,0.90
2022-08-09T04:41:18.698Z,1.15
2022-08-09T04:43:53.902Z,0.98
2022-08-09T04:46:37.967Z,0.93
2022-08-09T04:49:30.322Z,0.95
2022-08-09T04:52:05.399Z,1.02
2022-08-09T04:54:33.926Z,0.85
2022-08-09T04:57:00.829Z,1.00
2022-08-09T04:59:30.422Z,1.20
2022-08-09T05:01:57.078Z,0.90
2022-08-09T05:04:23.629Z,0.90
2022-08-09T05:06:57.797Z,1.17
2022-08-09T05:09:24.571Z,1.17
2022-08-09T05:11:51.431Z,0.88
2022-08-09T05:14:18.501Z,1.00
2022-08-09T05:16:59.085Z,1.23
2022-08-09T05:19:31.791Z,0.90
2022-08-09T05:22:36.231Z,1.13
2022-08-09T05:25:01.097Z,1.20
2022-08-09T05:27:29.219Z,0.85
2022-08-09T05:29:57.587Z,1.08
2022-08-09T05:32:25.486Z,1.05
2022-08-09T05:34:51.980Z,0.90
2022-08-09T05:37:18.656Z,0.90
2022-08-09T05:39:45.412Z,0.90
2022-08-09T05:42:17.528Z,1.00
2022-08-09T05:45:00.287Z,1.20
2022-08-09T05:47:30.257Z,1.15
2022-08-09T05:50:25.547Z,0.85
2022-08-09T05:52:53.905Z,0.80
2022-08-09T05:55:21.776Z,0.80
2022-08-09T05:57:56.801Z,1.08
2022-08-09T06:00:26.188Z,1.10
2022-08-09T06:02:54.387Z,0.93
2022-08-09T06:05:30.958Z,0.82
2022-08-09T06:08:11.262Z,1.00
2022-08-09T06:10:37.977Z,1.20
2022-08-09T06:13:18.655Z,1.23
2022-08-09T06:15:47.121Z,0.93
2022-08-09T06:18:14.047Z,1.02
2022-08-09T06:20:42.409Z,1.05
2022-08-09T06:23:12.062Z,0.90
2022-08-09T06:25:42.105Z,0.90
2022-08-09T06:28:09.851Z,0.93
2022-08-09T06:30:36.607Z,1.20
2022-08-09T06:33:30.027Z,0.93
2022-08-09T06:35:57.748Z,1.40
2022-08-09T06:38:32.669Z,0.98
2022-08-09T06:41:04.700Z,1.10
2022-08-09T06:43:45.346Z,1.10
2022-08-09T06:46:39.005Z,1.27
2022-08-09T06:49:00.215Z,1.08
2022-08-09T06:51:27.021Z,1.13
2022-08-09T06:53:54.942Z,1.25
2022-08-09T06:56:21.689Z,1.10
2022-08-09T07:00:54.310Z,1.20
2022-08-09T07:01:54.291Z,0.90
2022-08-09T07:04:24.967Z,1.10
2022-08-09T07:06:59.877Z,1.38
2022-08-09T07:09:56.090Z,1.10
2022-08-09T07:12:18.161Z,0.90
2022-08-09T07:15:53.210Z,1.38
2022-08-09T07:17:52.610Z,1.27
2022-08-09T07:20:22.535Z,1.20
2022-08-09T07:22:53.529Z,1.30
2022-08-09T07:25:20.846Z,1.30
2022-08-09T07:27:53.323Z,1.10
2022-08-09T07:30:24.734Z,1.08
2022-08-09T07:32:52.400Z,1.10
2022-08-09T07:35:19.304Z,1.10
2022-08-09T07:37:46.242Z,1.35
2022-08-09T07:40:18.520Z,1.48
2022-08-09T07:42:58.539Z,1.10
2022-08-09T07:45:37.513Z,1.15
2022-08-09T07:48:06.253Z,1.00
2022-08-09T07:50:36.441Z,1.40
2022-08-09T07:53:04.516Z,1.02
2022-08-09T07:56:02.731Z,1.13
2022-08-09T07:58:18.046Z,1.20
2022-08-09T08:00:59.072Z,1.17
2022-08-09T08:03:31.221Z,1.02
2022-08-09T08:05:58.599Z,1.25
2022-08-09T08:09:01.602Z,1.08
2022-08-09T08:12:10.577Z,1.23
2022-08-09T08:13:58.538Z,1.20
2022-08-09T08:16:31.916Z,1.10
2022-08-09T08:18:58.956Z,1.35
2022-08-09T08:21:25.517Z,1.48
2022-08-09T08:23:56.029Z,1.52
2022-08-09T08:26:26.706Z,1.38
2022-08-09T08:29:08.831Z,1.45
2022-08-09T08:32:02.744Z,1.50
2022-08-09T08:34:25.528Z,1.60
2022-08-09T08:36:52.213Z,1.10
2022-08-09T08:39:18.792Z,1.58
2022-08-09T08:41:51.780Z,1.30
2022-08-09T08:44:23.222Z,1.20
2022-08-09T08:47:03.133Z,1.60
2022-08-09T08:49:38.896Z,1.25
2022-08-09T08:52:48.604Z,1.58
2022-08-09T08:55:03.936Z,1.35
2022-08-09T08:57:34.808Z,1.70
2022-08-09T09:00:02.157Z,1.50
2022-08-09T09:02:30.788Z,1.30
2022-08-09T09:04:59.469Z,1.65
2022-08-09T09:07:33.127Z,1.70
2022-08-09T09:10:08.987Z,1.40
2022-08-09T09:12:36.088Z,1.63
2022-08-09T09:15:03.534Z,1.45
2022-08-09T09:17:48.660Z,1.30
2022-08-09T09:20:18.960Z,1.60
2022-08-09T09:22:53.973Z,1.50
2022-08-09T09:29:02.013Z,1.42
2022-08-09T09:31:09.546Z,1.45
2022-08-09T09:33:45.153Z,1.40
2022-08-09T09:36:20.418Z,1.60
2022-08-09T09:38:57.950Z,1.40
2022-08-09T09:41:33.042Z,1.27
2022-08-09T09:44:25.108Z,1.50
2022-08-09T09:47:04.304Z,1.40
2022-08-09T09:49:49.715Z,1.60
2022-08-09T09:52:36.693Z,1.50
2022-08-09T09:55:16.236Z,1.60
2022-08-09T09:58:04.373Z,1.65
2022-08-09T10:00:58.486Z,1.40
2022-08-09T10:03:39.811Z,1.35
2022-08-09T10:06:06.606Z,1.60
2022-08-09T10:08:44.268Z,1.60
2022-08-09T10:11:59.948Z,1.50
2022-08-09T10:14:27.279Z,1.60
2022-08-09T10:17:11.510Z,1.50
2022-08-09T10:19:45.804Z,1.75
2022-08-09T10:22:12.508Z,1.42
2022-08-09T10:24:39.669Z,1.50
2022-08-09T10:27:10.271Z,1.55
2022-08-09T10:30:41.758Z,1.50
2022-08-09T10:32:45.853Z,1.70
2022-08-09T10:35:13.633Z,1.90
2022-08-09T10:37:40.349Z,1.70
2022-08-09T10:40:12.142Z,1.60
2022-08-09T10:42:55.515Z,1.60
2022-08-09T10:45:21.999Z,1.73
2022-08-09T10:48:30.126Z,1.80
2022-08-09T10:51:29.803Z,1.55
2022-08-09T10:54:12.998Z,1.50
2022-08-09T10:56:42.910Z,1.65
2022-08-09T10:59:30.760Z,1.60
2022-08-09T11:03:15.717Z,1.50
2022-08-09T11:05:06.600Z,1.60
2022-08-09T11:07:57.869Z,1.70
2022-08-09T11:10:53.468Z,1.60
2022-08-09T11:13:49.854Z,1.70
2022-08-09T11:16:36.090Z,1.65
2022-08-09T11:19:09.563Z,1.60
2022-08-09T11:21:55.203Z,1.60
2022-08-09T11:25:04.739Z,1.83
2022-08-09T11:28:05.274Z,1.50
2022-08-09T11:30:32.737Z,1.73
2022-08-09T11:33:19.043Z,1.52
2022-08-09T11:35:50.159Z,1.60
2022-08-09T11:38:32.349Z,1.75
2022-08-09T11:41:13.080Z,1.52
2022-08-09T11:43:43.641Z,1.73
2022-08-09T11:46:10.409Z,1.60
2022-08-09T11:48:51.234Z,1.77
2022-08-09T11:51:38.221Z,1.63
2022-08-09T11:54:28.038Z,1.60
2022-08-09T11:57:47.668Z,1.60
2022-08-09T12:00:27.730Z,1.70
2022-08-09T12:02:55.549Z,1.67
2022-08-09T12:05:22.840Z,1.52
2022-08-09T12:07:49.838Z,1.80
2022-08-09T12:10:38.918Z,1.70
2022-08-09T12:14:07.803Z,1.65
2022-08-09T12:15:52.892Z,1.60
2022-08-09T12:18:30.164Z,1.98
2022-08-09T12:20:59.195Z,1.90
2022-08-09T12:23:58.090Z,1.92
2022-08-09T12:26:25.601Z,1.58
2022-08-09T12:29:13.078Z,1.75
2022-08-09T12:32:01.615Z,1.73
2022-08-09T12:34:33.841Z,1.70
2022-08-09T12:37:22.230Z,1.90
2022-08-09T12:40:02.477Z,1.85
2022-08-09T12:42:30.180Z,1.65
2022-08-09T12:44:56.966Z,1.85
2022-08-09T12:47:26.071Z,1.88
2022-08-09T12:50:11.130Z,1.58
2022-08-09T12:53:08.247Z,1.50
2022-08-09T12:56:14.329Z,1.83
2022-08-09T12:58:27.523Z,1.65
2022-08-09T13:00:55.078Z,1.80
2022-08-09T13:03:53.899Z,1.63
2022-08-09T13:06:48.907Z,1.63
2022-08-09T13:09:18.442Z,1.70
2022-08-09T13:11:46.860Z,1.92
2022-08-09T13:14:42.654Z,1.60
2022-08-09T13:17:16.257Z,1.60
2022-08-09T13:20:06.992Z,1.60
2022-08-09T13:23:05.298Z,1.60
2022-08-09T13:25:42.053Z,1.38
2022-08-09T13:28:24.309Z,1.50
2022-08-09T13:32:13.701Z,1.60
2022-08-09T13:33:53.522Z,1.60
2022-08-09T13:36:24.355Z,1.38
2022-08-09T13:39:30.994Z,1.55
2022-08-09T13:42:03.616Z,1.60
2022-08-09T13:44:30.580Z,1.58
2022-08-09T13:47:17.762Z,1.92
2022-08-09T13:49:57.346Z,1.40
2022-08-09T13:52:27.261Z,1.80
2022-08-09T13:54:58.905Z,1.70
2022-08-09T13:57:36.908Z,1.75
2022-08-09T14:00:12.161Z,1.50
2022-08-09T14:02:42.851Z,1.55
2022-08-09T14:06:01.122Z,1.50
2022-08-09T14:08:12.766Z,1.70
2022-08-09T14:10:46.216Z,1.50
2022-08-09T14:13:28.403Z,1.70
2022-08-09T14:16:11.076Z,1.38
2022-08-09T14:18:39.121Z,1.48
2022-08-09T14:21:17.242Z,1.80
2022-08-09T14:23:53.806Z,1.50
2022-08-09T14:26:24.006Z,1.83
2022-08-09T14:28:52.011Z,1.52
2022-08-09T14:31:18.634Z,1.75
2022-08-09T14:33:52.164Z,1.60
2022-08-09T14:36:21.240Z,1.67
2022-08-09T14:38:52.733Z,1.42
2022-08-09T14:41:26.884Z,1.50
2022-08-09T14:44:06.963Z,1.65
2022-08-09T14:46:59.034Z,1.50
2022-08-09T14:49:23.725Z,1.58
2022-08-09T14:51:50.738Z,1.50
2022-08-09T14:54:22.407Z,1.77
2022-08-09T14:56:58.646Z,1.50
2022-08-09T14:59:27.155Z,1.40
2022-08-09T15:01:54.012Z,1.70
2022-08-09T15:04:20.623Z,1.50
2022-08-09T15:06:50.420Z,1.60
2022-08-09T15:10:03.417Z,1.50
2022-08-09T15:12:07.865Z,1.42
2022-08-09T15:14:34.982Z,1.30
2022-08-09T15:17:07.596Z,1.38
2022-08-09T15:19:36.420Z,1.40
2022-08-09T15:22:03.257Z,1.50
2022-08-09T15:24:29.832Z,1.55
2022-08-09T15:26:56.347Z,1.38
2022-08-09T15:30:56.813Z,1.50
2022-08-09T15:32:39.252Z,1.48
2022-08-09T15:35:00.250Z,1.50
2022-08-09T15:37:57.211Z,1.42
2022-08-09T15:40:25.314Z,1.60
2022-08-09T15:42:59.091Z,1.35
2022-08-09T15:45:29.343Z,1.40
2022-08-09T15:48:05.311Z,1.70
2022-08-09T15:50:34.289Z,1.60
2022-08-09T15:53:06.071Z,1.50
2022-08-09T15:55:34.535Z,1.45
2022-08-09T15:58:26.808Z,1.30
2022-08-09T16:00:53.982Z,1.58
2022-08-09T16:03:29.704Z,1.80
2022-08-09T16:06:05.944Z,1.52
2022-08-09T16:08:33.188Z,1.40
2022-08-09T16:11:01.694Z,1.45
2022-08-09T16:14:02.863Z,1.35
2022-08-09T16:16:18.611Z,1.25
2022-08-09T16:18:45.987Z,1.60
2022-08-09T16:21:16.863Z,1.20
2022-08-09T16:23:54.939Z,1.55
2022-08-09T16:26:35.358Z,1.20
2022-08-09T16:29:13.313Z,1.40
2022-08-09T16:32:18.709Z,1.40
2022-08-09T16:34:44.789Z,1.52
2022-08-09T16:37:18.403Z,1.25
2022-08-09T16:39:54.528Z,1.25
2022-08-09T16:42:31.808Z,1.23
2022-08-09T16:44:58.299Z,1.58
2022-08-09T16:48:39.807Z,1.40
2022-08-09T16:50:29.231Z,1.33
2022-08-09T16:52:57.387Z,1.50
2022-08-09T16:55:24.216Z,1.45
2022-08-09T16:58:08.640Z,1.23
2022-08-09T17:00:36.536Z,1.08
2022-08-09T17:03:05.258Z,1.10
2022-08-09T17:06:08.732Z,1.33
2022-08-09T17:08:43.202Z,1.20
2022-08-09T17:11:06.658Z,1.42
2022-08-09T17:13:34.414Z,1.40
2022-08-09T17:16:02.519Z,1.10
2022-08-09T17:18:29.875Z,1.33
2022-08-09T17:20:56.763Z,1.20
2022-08-09T17:23:23.685Z,1.10
2022-08-09T17:26:10.362Z,1.23
2022-08-09T17:28:38.953Z,1.30
2022-08-09T17:31:05.781Z,1.48
2022-08-09T17:33:37.634Z,1.33
2022-08-09T17:36:04.713Z,1.00
2022-08-09T17:38:37.108Z,1.20
2022-08-09T17:41:05.705Z,1.10
2022-08-09T17:43:35.744Z,1.20
2022-08-09T17:46:06.646Z,1.15
2022-08-09T17:48:39.796Z,1.10
2022-08-09T17:51:18.568Z,1.20
2022-08-09T17:53:51.559Z,1.40
2022-08-09T17:56:20.350Z,1.15
2022-08-09T17:58:47.122Z,1.20
2022-08-09T18:01:22.697Z,0.93
2022-08-09T18:03:54.292Z,1.27
2022-08-09T18:06:30.968Z,1.45
2022-08-09T18:09:03.188Z,1.15
2022-08-09T18:11:32.122Z,1.25
2022-08-09T18:14:21.500Z,1.15
2022-08-09T18:16:48.924Z,1.10
2022-08-09T18:20:54.896Z,1.20
2022-08-09T18:22:03.488Z,1.25
2022-08-09T18:24:30.013Z,1.20
2022-08-09T18:26:57.663Z,0.80
2022-08-09T18:30:34.531Z,1.10
2022-08-09T18:32:14.302Z,1.02
2022-08-09T18:34:45.618Z,1.13
2022-08-09T18:37:49.097Z,1.20
2022-08-09T18:39:58.686Z,1.27
2022-08-09T18:42:29.500Z,1.10
2022-08-09T18:44:56.258Z,0.90
2022-08-09T18:47:27.496Z,1.20
2022-08-09T18:49:54.332Z,1.20
2022-08-09T18:52:35.168Z,0.93
2022-08-09T18:55:02.397Z,1.15
2022-08-09T18:57:42.780Z,1.00
2022-08-09T19:00:16.451Z,0.90
2022-08-09T19:02:47.286Z,0.90
2022-08-09T19:05:20.420Z,1.00
2022-08-09T19:08:09.613Z,0.93
2022-08-09T19:10:39.348Z,1.30
2022-08-09T19:13:22.469Z,1.00
2022-08-09T19:15:56.825Z,0.98
2022-08-09T19:18:32.621Z,0.93
2022-08-09T19:21:02.850Z,1.05
2022-08-09T19:24:37.670Z,0.82
2022-08-09T19:26:18.534Z,0.98
2022-08-09T19:28:55.558Z,0.80
2022-08-09T19:31:27.891Z,1.00
2022-08-09T19:33:57.314Z,0.90
2022-08-09T19:36:30.906Z,0.75
2022-08-09T19:39:03.553Z,0.80
2022-08-09T19:41:33.205Z,0.80
2022-08-09T19:44:03.238Z,0.95
2022-08-09T19:46:35.216Z,1.00
2022-08-09T19:50:04.564Z,0.70
2022-08-09T19:51:55.919Z,0.90
2022-08-09T19:54:32.064Z,0.90
2022-08-09T19:56:59.075Z,0.82
2022-08-09T19:59:57.487Z,1.00
2022-08-09T20:02:18.185Z,0.93
2022-08-09T20:05:01.624Z,0.75
2022-08-09T20:07:56.842Z,0.95
2022-08-09T20:10:17.763Z,0.88
2022-08-09T20:12:49.020Z,1.02
2022-08-09T20:16:37.479Z,0.90
2022-08-09T20:18:04.832Z,0.80
2022-08-09T20:20:35.246Z,0.70
2022-08-09T20:23:04.268Z,0.88
2022-08-09T20:25:38.192Z,0.77
2022-08-09T20:28:27.436Z,0.80
2022-08-09T20:30:54.733Z,0.68
2022-08-09T20:33:21.746Z,0.82
2022-08-09T20:35:51.610Z,0.88
2022-08-09T20:38:27.646Z,0.90
2022-08-09T20:41:04.145Z,0.80
2022-08-09T20:43:32.477Z,0.80
2022-08-09T20:46:15.586Z,0.80
2022-08-09T20:48:45.444Z,0.70
2022-08-09T20:51:19.260Z,0.70
2022-08-09T20:53:46.022Z,0.70
2022-08-09T20:56:20.791Z,0.93
2022-08-09T20:58:54.618Z,0.80
2022-08-09T21:01:34.931Z,0.73
2022-08-09T21:05:52.141Z,0.70
2022-08-09T21:06:58.229Z,0.80
2022-08-09T21:09:41.933Z,0.80
2022-08-09T21:14:43.277Z,0.80
2022-08-09T21:18:11.414Z,0.52
2022-08-09T21:20:18.482Z,0.70
2022-08-09T21:22:53.958Z,0.68
2022-08-09T21:25:39.629Z,0.65
2022-08-09T21:28:11.916Z,0.77
2022-08-09T21:30:42.303Z,0.82
2022-08-09T21:33:08.913Z,0.80
2022-08-09T21:35:40.670Z,0.70
2022-08-09T21:38:08.798Z,0.63
2022-08-09T21:40:36.375Z,0.68
2022-08-09T21:43:06.056Z,0.70
2022-08-09T21:45:33.474Z,0.65
2022-08-09T21:48:06.673Z,0.77
2022-08-09T21:50:35.949Z,0.52
2022-08-09T21:53:19.878Z,0.68
2022-08-09T21:55:55.084Z,0.80
2022-08-09T21:58:21.685Z,0.73
2022-08-09T22:00:57.537Z,0.60
2022-08-09T22:03:25.494Z,0.70
2022-08-09T22:05:52.746Z,0.73
2022-08-09T22:08:24.579Z,0.90
2022-08-09T22:11:00.992Z,0.55
2022-08-09T22:13:38.144Z,0.73
2022-08-09T22:16:07.588Z,0.80
2022-08-09T22:18:35.922Z,0.68
2022-08-09T22:21:09.728Z,0.70
2022-08-09T22:23:59.415Z,0.60
2022-08-09T22:26:34.893Z,0.73
2022-08-09T22:29:05.358Z,0.70
2022-08-09T22:31:35.004Z,0.70
2022-08-09T22:34:01.491Z,0.70
2022-08-09T22:36:28.063Z,0.60
2022-08-09T22:39:04.041Z,0.63
2022-08-09T22:41:30.784Z,0.63
2022-08-09T22:44:02.731Z,0.50
2022-08-09T22:48:13.618Z,0.73
2022-08-09T22:49:17.114Z,0.70
2022-08-09T22:51:49.362Z,0.70
2022-08-09T22:54:16.937Z,0.75
2022-08-09T22:56:47.980Z,0.60
2022-08-09T22:59:56.406Z,0.40
2022-08-09T23:02:07.984Z,0.60
2022-08-09T23:04:34.726Z,0.60
2022-08-09T23:08:22.980Z,0.70
2022-08-09T23:10:10.155Z,0.70
2022-08-09T23:12:36.679Z,0.55
2022-08-09T23:15:03.968Z,0.50
2022-08-09T23:17:30.717Z,0.70
2022-08-09T23:20:07.391Z,0.80
2022-08-09T23:22:34.847Z,0.50
2022-08-09T23:25:05.501Z,0.60
2022-08-09T23:27:32.353Z,0.68
2022-08-09T23:29:59.078Z,0.60
2022-08-09T23:32:25.565Z,0.52
2022-08-09T23:34:52.114Z,0.65
2022-08-09T23:37:21.336Z,0.60
2022-08-09T23:39:49.308Z,0.60
2022-08-09T23:42:15.910Z,0.70
2022-08-09T23:44:42.464Z,0.60
2022-08-09T23:47:08.981Z,0.68
2022-08-09T23:49:35.480Z,0.50
2022-08-09T23:52:01.977Z,0.57
2022-08-09T23:54:28.505Z,0.55
2022-08-09T23:56:56.274Z,0.40
2022-08-09T23:59:24.753Z,0.63
